Mount Orab, Ohio
Current Conditions -  °F | °C
As of 4:53 PM on Sunday 25 Jan 2015 (Local Time) from KLUK Reporting Station
Light Rain Light Rain  
Wind Chill: 40°   Ceiling: 3800
Heat Index: 40°   Visibility: 5mi
Dew Point: 37°   Wind: 0mph
Humidity: 89%   Direction: NA
Pressure: 29.68"   Gusts: NA
Location:  39.03°N, 83.92°W
Report Text: KLUK 252153Z 00000KT 5SM -RA BR SCT031 OVC038 04/03 A2968 RMK AO2 SLP053 P0003 T00440028
Loading
Personal Weather Stations






























Interactive Weather Map New forecast layout! Learn more

10-Day Weather Forecast

Advertisements
Track Severe Weather on mobile